sensor_id;sensor_type;location;lat;lon;timestamp;P1;durP1;ratioP1;P2;durP2;ratioP2
23995;SDS011;12207;50.076;8.848;2024-03-17T00:00:37;345.15;;;74.60;;
23995;SDS011;12207;50.076;8.848;2024-03-17T00:03:05;347.30;;;74.82;;
23995;SDS011;12207;50.076;8.848;2024-03-17T00:05:34;352.23;;;76.20;;
23995;SDS011;12207;50.076;8.848;2024-03-17T00:08:01;342.25;;;74.82;;
23995;SDS011;12207;50.076;8.848;2024-03-17T00:10:30;342.75;;;75.00;;
23995;SDS011;12207;50.076;8.848;2024-03-17T00:12:56;338.05;;;74.53;;
23995;SDS011;12207;50.076;8.848;2024-03-17T00:15:22;344.15;;;75.10;;
23995;SDS011;12207;50.076;8.848;2024-03-17T00:17:52;346.20;;;74.90;;
23995;SDS011;12207;50.076;8.848;2024-03-17T00:20:18;341.92;;;74.45;;
23995;SDS011;12207;50.076;8.848;2024-03-17T00:22:48;351.67;;;75.80;;
23995;SDS011;12207;50.076;8.848;2024-03-17T00:25:16;348.10;;;75.03;;
23995;SDS011;12207;50.076;8.848;2024-03-17T00:27:42;357.05;;;76.38;;
23995;SDS011;12207;50.076;8.848;2024-03-17T00:30:10;349.85;;;75.32;;
23995;SDS011;12207;50.076;8.848;2024-03-17T00:32:40;344.48;;;74.30;;
23995;SDS011;12207;50.076;8.848;2024-03-17T00:35:07;349.17;;;74.75;;
23995;SDS011;12207;50.076;8.848;2024-03-17T00:37:36;341.73;;;73.80;;
23995;SDS011;12207;50.076;8.848;2024-03-17T00:40:03;340.75;;;73.40;;
23995;SDS011;12207;50.076;8.848;2024-03-17T00:42:31;351.00;;;75.65;;
23995;SDS011;12207;50.076;8.848;2024-03-17T00:44:58;350.10;;;74.80;;
23995;SDS011;12207;50.076;8.848;2024-03-17T00:47:30;345.35;;;74.53;;
23995;SDS011;12207;50.076;8.848;2024-03-17T00:49:56;338.98;;;73.25;;
23995;SDS011;12207;50.076;8.848;2024-03-17T00:52:25;342.20;;;73.57;;
23995;SDS011;12207;50.076;8.848;2024-03-17T00:54:52;333.88;;;72.97;;
23995;SDS011;12207;50.076;8.848;2024-03-17T00:57:19;341.30;;;73.85;;
23995;SDS011;12207;50.076;8.848;2024-03-17T00:59:45;349.98;;;74.57;;
23995;SDS011;12207;50.076;8.848;2024-03-17T01:02:11;346.92;;;74.32;;
23995;SDS011;12207;50.076;8.848;2024-03-17T01:04:41;331.05;;;72.53;;
23995;SDS011;12207;50.076;8.848;2024-03-17T01:07:10;351.70;;;73.80;;
23995;SDS011;12207;50.076;8.848;2024-03-17T01:09:37;334.88;;;72.53;;
23995;SDS011;12207;50.076;8.848;2024-03-17T01:12:04;336.23;;;73.70;;
23995;SDS011;12207;50.076;8.848;2024-03-17T01:14:30;331.55;;;72.85;;
23995;SDS011;12207;50.076;8.848;2024-03-17T01:17:01;345.92;;;74.43;;
23995;SDS011;12207;50.076;8.848;2024-03-17T01:19:30;336.17;;;72.87;;
23995;SDS011;12207;50.076;8.848;2024-03-17T01:21:57;350.90;;;74.25;;
23995;SDS011;12207;50.076;8.848;2024-03-17T01:24:25;331.45;;;72.32;;
23995;SDS011;12207;50.076;8.848;2024-03-17T01:26:56;345.48;;;74.13;;
23995;SDS011;12207;50.076;8.848;2024-03-17T01:29:24;334.20;;;73.38;;
23995;SDS011;12207;50.076;8.848;2024-03-17T01:31:51;335.70;;;73.20;;
23995;SDS011;12207;50.076;8.848;2024-03-17T01:34:20;345.30;;;73.43;;
23995;SDS011;12207;50.076;8.848;2024-03-17T01:36:50;347.60;;;73.60;;
23995;SDS011;12207;50.076;8.848;2024-03-17T01:39:19;345.15;;;73.22;;
23995;SDS011;12207;50.076;8.848;2024-03-17T01:41:46;346.88;;;73.85;;
23995;SDS011;12207;50.076;8.848;2024-03-17T01:44:22;350.60;;;73.05;;
23995;SDS011;12207;50.076;8.848;2024-03-17T01:46:53;341.98;;;74.47;;
23995;SDS011;12207;50.076;8.848;2024-03-17T01:49:21;348.90;;;73.78;;
23995;SDS011;12207;50.076;8.848;2024-03-17T01:51:48;345.30;;;73.22;;
23995;SDS011;12207;50.076;8.848;2024-03-17T01:54:16;346.70;;;73.70;;
23995;SDS011;12207;50.076;8.848;2024-03-17T01:56:45;335.92;;;71.65;;
23995;SDS011;12207;50.076;8.848;2024-03-17T01:59:12;336.25;;;71.53;;
23995;SDS011;12207;50.076;8.848;2024-03-17T02:01:41;341.42;;;72.00;;
23995;SDS011;12207;50.076;8.848;2024-03-17T02:04:07;346.52;;;72.45;;
23995;SDS011;12207;50.076;8.848;2024-03-17T02:06:33;324.27;;;70.85;;
23995;SDS011;12207;50.076;8.848;2024-03-17T02:08:59;333.25;;;72.30;;
23995;SDS011;12207;50.076;8.848;2024-03-17T02:11:29;331.73;;;71.53;;
23995;SDS011;12207;50.076;8.848;2024-03-17T02:13:57;323.85;;;71.55;;
23995;SDS011;12207;50.076;8.848;2024-03-17T02:16:25;331.88;;;72.15;;
23995;SDS011;12207;50.076;8.848;2024-03-17T02:18:55;346.48;;;73.88;;
23995;SDS011;12207;50.076;8.848;2024-03-17T02:21:22;335.77;;;72.68;;
23995;SDS011;12207;50.076;8.848;2024-03-17T02:23:50;353.15;;;75.68;;
23995;SDS011;12207;50.076;8.848;2024-03-17T02:26:16;338.08;;;73.20;;
23995;SDS011;12207;50.076;8.848;2024-03-17T02:28:44;325.63;;;71.15;;
23995;SDS011;12207;50.076;8.848;2024-03-17T02:31:12;351.60;;;73.90;;
23995;SDS011;12207;50.076;8.848;2024-03-17T02:33:40;327.95;;;71.03;;
23995;SDS011;12207;50.076;8.848;2024-03-17T02:36:07;338.55;;;71.63;;
23995;SDS011;12207;50.076;8.848;2024-03-17T02:38:39;345.90;;;73.63;;
23995;SDS011;12207;50.076;8.848;2024-03-17T02:41:26;329.73;;;71.38;;
23995;SDS011;12207;50.076;8.848;2024-03-17T02:43:55;338.60;;;72.80;;
23995;SDS011;12207;50.076;8.848;2024-03-17T02:46:21;330.60;;;70.75;;
23995;SDS011;12207;50.076;8.848;2024-03-17T02:48:50;339.35;;;72.63;;
23995;SDS011;12207;50.076;8.848;2024-03-17T02:51:18;333.67;;;72.20;;
23995;SDS011;12207;50.076;8.848;2024-03-17T02:53:45;336.63;;;72.32;;
23995;SDS011;12207;50.076;8.848;2024-03-17T02:56:13;325.17;;;71.03;;
23995;SDS011;12207;50.076;8.848;2024-03-17T02:58:41;332.35;;;71.30;;
23995;SDS011;12207;50.076;8.848;2024-03-17T03:01:08;332.58;;;71.88;;
23995;SDS011;12207;50.076;8.848;2024-03-17T03:03:35;354.83;;;74.47;;
23995;SDS011;12207;50.076;8.848;2024-03-17T03:06:01;330.55;;;71.30;;
23995;SDS011;12207;50.076;8.848;2024-03-17T03:11:02;337.33;;;72.25;;
23995;SDS011;12207;50.076;8.848;2024-03-17T03:13:29;345.83;;;72.78;;
23995;SDS011;12207;50.076;8.848;2024-03-17T03:15:55;331.83;;;72.60;;
23995;SDS011;12207;50.076;8.848;2024-03-17T03:18:21;329.45;;;71.32;;
23995;SDS011;12207;50.076;8.848;2024-03-17T03:20:51;337.08;;;72.63;;
23995;SDS011;12207;50.076;8.848;2024-03-17T03:23:17;332.23;;;71.93;;
23995;SDS011;12207;50.076;8.848;2024-03-17T03:25:44;334.95;;;71.63;;
23995;SDS011;12207;50.076;8.848;2024-03-17T03:28:12;336.08;;;72.63;;
23995;SDS011;12207;50.076;8.848;2024-03-17T03:30:38;327.35;;;71.22;;
23995;SDS011;12207;50.076;8.848;2024-03-17T03:33:05;333.05;;;71.65;;
23995;SDS011;12207;50.076;8.848;2024-03-17T03:35:31;350.98;;;73.78;;
23995;SDS011;12207;50.076;8.848;2024-03-17T03:37:58;329.75;;;71.72;;
23995;SDS011;12207;50.076;8.848;2024-03-17T03:40:26;331.63;;;71.13;;
23995;SDS011;12207;50.076;8.848;2024-03-17T03:42:52;317.58;;;70.45;;
23995;SDS011;12207;50.076;8.848;2024-03-17T03:45:18;332.00;;;71.57;;
23995;SDS011;12207;50.076;8.848;2024-03-17T03:47:45;331.30;;;72.10;;
23995;SDS011;12207;50.076;8.848;2024-03-17T03:50:14;351.63;;;73.75;;
23995;SDS011;12207;50.076;8.848;2024-03-17T03:52:44;329.10;;;71.43;;
23995;SDS011;12207;50.076;8.848;2024-03-17T03:55:11;344.75;;;73.57;;
23995;SDS011;12207;50.076;8.848;2024-03-17T03:57:40;329.88;;;71.32;;
23995;SDS011;12207;50.076;8.848;2024-03-17T04:00:07;326.13;;;71.43;;
23995;SDS011;12207;50.076;8.848;2024-03-17T04:02:40;346.70;;;73.82;;
23995;SDS011;12207;50.076;8.848;2024-03-17T04:05:07;346.02;;;73.03;;
23995;SDS011;12207;50.076;8.848;2024-03-17T04:07:34;321.38;;;70.82;;
23995;SDS011;12207;50.076;8.848;2024-03-17T04:10:01;335.38;;;71.75;;
23995;SDS011;12207;50.076;8.848;2024-03-17T04:12:28;338.70;;;71.95;;
23995;SDS011;12207;50.076;8.848;2024-03-17T04:14:57;333.40;;;71.93;;
23995;SDS011;12207;50.076;8.848;2024-03-17T04:17:24;326.20;;;71.07;;
23995;SDS011;12207;50.076;8.848;2024-03-17T04:19:52;349.60;;;73.53;;
23995;SDS011;12207;50.076;8.848;2024-03-17T04:22:19;313.33;;;69.88;;
23995;SDS011;12207;50.076;8.848;2024-03-17T04:24:47;334.02;;;71.63;;
23995;SDS011;12207;50.076;8.848;2024-03-17T04:27:18;340.73;;;73.03;;
23995;SDS011;12207;50.076;8.848;2024-03-17T04:29:48;341.80;;;71.57;;
23995;SDS011;12207;50.076;8.848;2024-03-17T04:32:14;315.33;;;69.97;;
23995;SDS011;12207;50.076;8.848;2024-03-17T04:34:43;333.65;;;72.00;;
23995;SDS011;12207;50.076;8.848;2024-03-17T04:37:09;349.08;;;72.57;;
23995;SDS011;12207;50.076;8.848;2024-03-17T04:39:39;334.10;;;71.80;;
23995;SDS011;12207;50.076;8.848;2024-03-17T04:42:07;340.13;;;72.03;;
23995;SDS011;12207;50.076;8.848;2024-03-17T04:44:37;329.02;;;71.05;;
23995;SDS011;12207;50.076;8.848;2024-03-17T04:47:03;331.92;;;71.75;;
23995;SDS011;12207;50.076;8.848;2024-03-17T04:49:32;316.75;;;70.85;;
23995;SDS011;12207;50.076;8.848;2024-03-17T04:52:01;328.40;;;70.95;;
23995;SDS011;12207;50.076;8.848;2024-03-17T04:54:28;344.63;;;72.80;;
23995;SDS011;12207;50.076;8.848;2024-03-17T04:56:54;334.45;;;72.68;;
23995;SDS011;12207;50.076;8.848;2024-03-17T04:59:20;330.80;;;72.18;;
23995;SDS011;12207;50.076;8.848;2024-03-17T05:01:46;326.80;;;71.05;;
23995;SDS011;12207;50.076;8.848;2024-03-17T05:04:13;319.25;;;70.07;;
23995;SDS011;12207;50.076;8.848;2024-03-17T05:06:40;321.70;;;70.43;;
23995;SDS011;12207;50.076;8.848;2024-03-17T05:09:07;324.15;;;70.32;;
23995;SDS011;12207;50.076;8.848;2024-03-17T05:11:38;334.73;;;71.90;;
23995;SDS011;12207;50.076;8.848;2024-03-17T05:14:04;317.92;;;70.40;;
23995;SDS011;12207;50.076;8.848;2024-03-17T05:16:30;317.23;;;70.75;;
23995;SDS011;12207;50.076;8.848;2024-03-17T05:18:56;315.75;;;70.63;;
23995;SDS011;12207;50.076;8.848;2024-03-17T05:21:22;331.42;;;70.97;;
23995;SDS011;12207;50.076;8.848;2024-03-17T05:23:49;320.45;;;70.60;;
23995;SDS011;12207;50.076;8.848;2024-03-17T05:26:15;325.02;;;71.28;;
23995;SDS011;12207;50.076;8.848;2024-03-17T05:28:41;323.83;;;70.63;;
23995;SDS011;12207;50.076;8.848;2024-03-17T05:31:08;347.65;;;72.80;;
23995;SDS011;12207;50.076;8.848;2024-03-17T05:33:34;328.13;;;70.75;;
23995;SDS011;12207;50.076;8.848;2024-03-17T05:36:02;315.17;;;70.03;;
23995;SDS011;12207;50.076;8.848;2024-03-17T05:38:29;328.90;;;72.10;;
23995;SDS011;12207;50.076;8.848;2024-03-17T05:40:56;327.77;;;71.70;;
23995;SDS011;12207;50.076;8.848;2024-03-17T05:43:27;320.27;;;70.50;;
23995;SDS011;12207;50.076;8.848;2024-03-17T05:45:56;327.70;;;71.60;;
23995;SDS011;12207;50.076;8.848;2024-03-17T05:48:23;334.63;;;72.57;;
23995;SDS011;12207;50.076;8.848;2024-03-17T05:50:52;325.92;;;71.25;;
23995;SDS011;12207;50.076;8.848;2024-03-17T05:53:19;324.63;;;70.80;;
23995;SDS011;12207;50.076;8.848;2024-03-17T05:55:46;316.65;;;69.97;;
23995;SDS011;12207;50.076;8.848;2024-03-17T05:58:12;329.40;;;71.22;;
23995;SDS011;12207;50.076;8.848;2024-03-17T06:00:39;326.65;;;71.18;;
23995;SDS011;12207;50.076;8.848;2024-03-17T06:03:05;334.40;;;72.78;;
23995;SDS011;12207;50.076;8.848;2024-03-17T06:05:41;321.33;;;70.68;;
23995;SDS011;12207;50.076;8.848;2024-03-17T06:08:07;328.45;;;72.20;;
23995;SDS011;12207;50.076;8.848;2024-03-17T06:10:34;321.00;;;70.80;;
23995;SDS011;12207;50.076;8.848;2024-03-17T06:13:08;342.23;;;72.80;;
23995;SDS011;12207;50.076;8.848;2024-03-17T06:15:40;319.92;;;70.35;;
23995;SDS011;12207;50.076;8.848;2024-03-17T06:18:08;344.70;;;73.40;;
23995;SDS011;12207;50.076;8.848;2024-03-17T06:20:42;353.52;;;74.50;;
23995;SDS011;12207;50.076;8.848;2024-03-17T06:23:13;345.77;;;73.10;;
23995;SDS011;12207;50.076;8.848;2024-03-17T06:28:12;358.63;;;77.30;;
23995;SDS011;12207;50.076;8.848;2024-03-17T06:30:40;346.58;;;73.35;;
23995;SDS011;12207;50.076;8.848;2024-03-17T06:33:13;351.13;;;74.03;;
23995;SDS011;12207;50.076;8.848;2024-03-17T06:35:41;345.98;;;72.78;;
23995;SDS011;12207;50.076;8.848;2024-03-17T06:38:07;346.35;;;73.68;;
23995;SDS011;12207;50.076;8.848;2024-03-17T06:40:35;348.40;;;73.90;;
23995;SDS011;12207;50.076;8.848;2024-03-17T06:43:01;329.40;;;82.55;;
23995;SDS011;12207;50.076;8.848;2024-03-17T06:45:27;334.80;;;84.10;;
23995;SDS011;12207;50.076;8.848;2024-03-17T06:47:53;346.00;;;75.13;;
23995;SDS011;12207;50.076;8.848;2024-03-17T06:50:20;338.33;;;88.63;;
23995;SDS011;12207;50.076;8.848;2024-03-17T06:52:46;342.70;;;75.05;;
23995;SDS011;12207;50.076;8.848;2024-03-17T06:55:13;345.65;;;74.10;;
23995;SDS011;12207;50.076;8.848;2024-03-17T06:57:42;334.30;;;75.03;;
23995;SDS011;12207;50.076;8.848;2024-03-17T07:00:11;342.73;;;74.88;;
23995;SDS011;12207;50.076;8.848;2024-03-17T07:02:42;329.55;;;74.57;;
23995;SDS011;12207;50.076;8.848;2024-03-17T07:05:12;354.02;;;76.07;;
23995;SDS011;12207;50.076;8.848;2024-03-17T07:07:43;340.38;;;74.30;;
23995;SDS011;12207;50.076;8.848;2024-03-17T07:10:09;360.02;;;76.18;;
23995;SDS011;12207;50.076;8.848;2024-03-17T07:12:37;362.30;;;76.45;;
23995;SDS011;12207;50.076;8.848;2024-03-17T07:15:04;349.27;;;74.85;;
23995;SDS011;12207;50.076;8.848;2024-03-17T07:17:30;367.17;;;76.60;;
23995;SDS011;12207;50.076;8.848;2024-03-17T07:19:57;352.02;;;74.93;;
23995;SDS011;12207;50.076;8.848;2024-03-17T07:22:23;352.25;;;76.50;;
23995;SDS011;12207;50.076;8.848;2024-03-17T07:24:51;345.30;;;74.63;;
23995;SDS011;12207;50.076;8.848;2024-03-17T07:27:21;343.48;;;75.25;;
23995;SDS011;12207;50.076;8.848;2024-03-17T07:29:48;350.88;;;75.75;;
23995;SDS011;12207;50.076;8.848;2024-03-17T07:32:14;351.42;;;76.65;;
23995;SDS011;12207;50.076;8.848;2024-03-17T07:34:40;336.80;;;74.03;;
23995;SDS011;12207;50.076;8.848;2024-03-17T07:37:06;355.77;;;77.30;;
23995;SDS011;12207;50.076;8.848;2024-03-17T07:39:35;352.80;;;75.95;;
23995;SDS011;12207;50.076;8.848;2024-03-17T07:42:01;345.90;;;74.88;;
23995;SDS011;12207;50.076;8.848;2024-03-17T07:44:28;362.83;;;77.65;;
23995;SDS011;12207;50.076;8.848;2024-03-17T07:46:59;367.65;;;77.75;;
23995;SDS011;12207;50.076;8.848;2024-03-17T07:49:31;343.52;;;75.25;;
23995;SDS011;12207;50.076;8.848;2024-03-17T07:51:57;358.65;;;77.07;;
23995;SDS011;12207;50.076;8.848;2024-03-17T07:54:26;362.02;;;78.63;;
23995;SDS011;12207;50.076;8.848;2024-03-17T07:56:53;339.15;;;75.75;;
23995;SDS011;12207;50.076;8.848;2024-03-17T07:59:20;376.83;;;79.85;;
23995;SDS011;12207;50.076;8.848;2024-03-17T08:01:46;358.92;;;78.25;;
23995;SDS011;12207;50.076;8.848;2024-03-17T08:04:18;347.70;;;78.03;;
23995;SDS011;12207;50.076;8.848;2024-03-17T08:06:44;341.77;;;77.10;;
23995;SDS011;12207;50.076;8.848;2024-03-17T08:09:10;377.75;;;79.55;;
23995;SDS011;12207;50.076;8.848;2024-03-17T08:11:37;368.35;;;78.85;;
23995;SDS011;12207;50.076;8.848;2024-03-17T08:14:04;358.33;;;78.25;;
23995;SDS011;12207;50.076;8.848;2024-03-17T08:16:33;380.10;;;81.20;;
23995;SDS011;12207;50.076;8.848;2024-03-17T08:18:59;383.98;;;80.60;;
23995;SDS011;12207;50.076;8.848;2024-03-17T08:21:25;376.70;;;80.65;;
23995;SDS011;12207;50.076;8.848;2024-03-17T08:23:53;382.88;;;81.35;;
23995;SDS011;12207;50.076;8.848;2024-03-17T08:26:20;366.80;;;81.15;;
23995;SDS011;12207;50.076;8.848;2024-03-17T08:28:46;382.30;;;83.35;;
23995;SDS011;12207;50.076;8.848;2024-03-17T08:31:12;400.58;;;84.15;;
23995;SDS011;12207;50.076;8.848;2024-03-17T08:33:40;397.08;;;85.07;;
23995;SDS011;12207;50.076;8.848;2024-03-17T08:36:06;399.27;;;85.97;;
23995;SDS011;12207;50.076;8.848;2024-03-17T08:38:34;399.95;;;85.75;;
23995;SDS011;12207;50.076;8.848;2024-03-17T08:41:04;384.33;;;83.60;;
23995;SDS011;12207;50.076;8.848;2024-03-17T08:43:31;417.77;;;88.03;;
23995;SDS011;12207;50.076;8.848;2024-03-17T08:45:59;399.48;;;84.85;;
23995;SDS011;12207;50.076;8.848;2024-03-17T08:48:28;384.50;;;84.05;;
23995;SDS011;12207;50.076;8.848;2024-03-17T08:50:59;393.27;;;85.90;;
23995;SDS011;12207;50.076;8.848;2024-03-17T08:53:26;385.75;;;84.75;;
23995;SDS011;12207;50.076;8.848;2024-03-17T08:55:53;383.02;;;85.22;;
23995;SDS011;12207;50.076;8.848;2024-03-17T08:58:20;396.20;;;87.78;;
23995;SDS011;12207;50.076;8.848;2024-03-17T09:00:47;394.02;;;87.43;;
23995;SDS011;12207;50.076;8.848;2024-03-17T09:03:13;384.30;;;85.95;;
23995;SDS011;12207;50.076;8.848;2024-03-17T09:05:40;391.40;;;88.13;;
23995;SDS011;12207;50.076;8.848;2024-03-17T09:08:10;383.20;;;88.13;;
23995;SDS011;12207;50.076;8.848;2024-03-17T09:10:45;410.60;;;91.57;;
23995;SDS011;12207;50.076;8.848;2024-03-17T09:13:13;388.75;;;87.65;;
23995;SDS011;12207;50.076;8.848;2024-03-17T09:15:41;377.05;;;88.60;;
23995;SDS011;12207;50.076;8.848;2024-03-17T09:18:21;393.25;;;89.15;;
23995;SDS011;12207;50.076;8.848;2024-03-17T09:21:01;379.00;;;88.35;;
23995;SDS011;12207;50.076;8.848;2024-03-17T09:23:28;391.38;;;87.43;;
23995;SDS011;12207;50.076;8.848;2024-03-17T09:25:59;412.17;;;91.40;;
23995;SDS011;12207;50.076;8.848;2024-03-17T09:28:34;395.90;;;89.45;;
23995;SDS011;12207;50.076;8.848;2024-03-17T09:31:01;402.70;;;105.60;;
23995;SDS011;12207;50.076;8.848;2024-03-17T09:33:30;397.02;;;89.95;;
23995;SDS011;12207;50.076;8.848;2024-03-17T09:35:56;394.92;;;88.68;;
23995;SDS011;12207;50.076;8.848;2024-03-17T09:38:25;380.95;;;86.65;;
23995;SDS011;12207;50.076;8.848;2024-03-17T09:40:52;386.88;;;88.53;;
23995;SDS011;12207;50.076;8.848;2024-03-17T09:43:20;381.90;;;88.55;;
23995;SDS011;12207;50.076;8.848;2024-03-17T09:45:50;371.73;;;88.35;;
23995;SDS011;12207;50.076;8.848;2024-03-17T09:48:23;385.65;;;89.50;;
23995;SDS011;12207;50.076;8.848;2024-03-17T09:50:56;408.50;;;93.03;;
23995;SDS011;12207;50.076;8.848;2024-03-17T09:53:25;388.10;;;90.38;;
23995;SDS011;12207;50.076;8.848;2024-03-17T09:55:58;399.48;;;93.05;;
23995;SDS011;12207;50.076;8.848;2024-03-17T09:58:33;395.08;;;93.43;;
23995;SDS011;12207;50.076;8.848;2024-03-17T10:01:00;388.25;;;90.60;;
23995;SDS011;12207;50.076;8.848;2024-03-17T10:06:24;398.70;;;90.43;;
23995;SDS011;12207;50.076;8.848;2024-03-17T10:08:54;398.80;;;90.20;;
23995;SDS011;12207;50.076;8.848;2024-03-17T10:11:22;387.77;;;88.93;;
23995;SDS011;12207;50.076;8.848;2024-03-17T10:16:29;391.48;;;92.10;;
23995;SDS011;12207;50.076;8.848;2024-03-17T10:19:13;391.15;;;90.38;;
23995;SDS011;12207;50.076;8.848;2024-03-17T10:21:44;373.40;;;88.60;;
23995;SDS011;12207;50.076;8.848;2024-03-17T10:31:56;403.75;;;95.93;;
23995;SDS011;12207;50.076;8.848;2024-03-17T10:34:29;404.33;;;94.60;;
23995;SDS011;12207;50.076;8.848;2024-03-17T10:37:11;405.75;;;93.95;;
23995;SDS011;12207;50.076;8.848;2024-03-17T10:39:41;393.77;;;92.93;;
23995;SDS011;12207;50.076;8.848;2024-03-17T10:42:09;397.88;;;93.93;;
23995;SDS011;12207;50.076;8.848;2024-03-17T10:44:37;417.42;;;100.57;;
23995;SDS011;12207;50.076;8.848;2024-03-17T10:47:05;402.83;;;94.95;;
23995;SDS011;12207;50.076;8.848;2024-03-17T10:49:35;402.98;;;94.32;;
23995;SDS011;12207;50.076;8.848;2024-03-17T10:52:03;392.50;;;94.68;;
23995;SDS011;12207;50.076;8.848;2024-03-17T10:54:33;387.50;;;92.63;;
23995;SDS011;12207;50.076;8.848;2024-03-17T10:59:53;388.85;;;95.85;;
23995;SDS011;12207;50.076;8.848;2024-03-17T11:02:28;383.13;;;92.75;;
23995;SDS011;12207;50.076;8.848;2024-03-17T11:04:58;379.38;;;94.72;;
23995;SDS011;12207;50.076;8.848;2024-03-17T11:07:27;396.00;;;96.32;;
23995;SDS011;12207;50.076;8.848;2024-03-17T11:09:56;384.48;;;93.53;;
23995;SDS011;12207;50.076;8.848;2024-03-17T11:17:54;385.52;;;92.15;;
23995;SDS011;12207;50.076;8.848;2024-03-17T11:20:55;412.35;;;97.07;;
23995;SDS011;12207;50.076;8.848;2024-03-17T11:23:40;396.63;;;93.88;;
23995;SDS011;12207;50.076;8.848;2024-03-17T11:26:07;400.90;;;96.95;;
23995;SDS011;12207;50.076;8.848;2024-03-17T11:34:06;388.02;;;93.15;;
23995;SDS011;12207;50.076;8.848;2024-03-17T11:36:51;397.48;;;97.63;;
23995;SDS011;12207;50.076;8.848;2024-03-17T11:39:18;379.50;;;90.18;;
23995;SDS011;12207;50.076;8.848;2024-03-17T11:42:06;406.08;;;94.93;;
23995;SDS011;12207;50.076;8.848;2024-03-17T11:44:41;424.05;;;96.63;;
23995;SDS011;12207;50.076;8.848;2024-03-17T11:47:09;393.15;;;99.75;;
23995;SDS011;12207;50.076;8.848;2024-03-17T11:49:39;397.02;;;93.63;;
23995;SDS011;12207;50.076;8.848;2024-03-17T11:52:12;400.50;;;94.68;;
23995;SDS011;12207;50.076;8.848;2024-03-17T11:54:40;414.83;;;95.93;;
23995;SDS011;12207;50.076;8.848;2024-03-17T11:57:11;408.13;;;97.50;;
23995;SDS011;12207;50.076;8.848;2024-03-17T11:59:39;386.60;;;92.22;;
23995;SDS011;12207;50.076;8.848;2024-03-17T12:02:10;396.80;;;92.55;;
23995;SDS011;12207;50.076;8.848;2024-03-17T12:04:51;390.60;;;94.15;;
23995;SDS011;12207;50.076;8.848;2024-03-17T12:07:19;399.80;;;96.45;;
23995;SDS011;12207;50.076;8.848;2024-03-17T12:09:48;400.17;;;95.60;;
23995;SDS011;12207;50.076;8.848;2024-03-17T12:12:22;389.67;;;95.38;;
23995;SDS011;12207;50.076;8.848;2024-03-17T12:15:01;416.13;;;98.82;;
23995;SDS011;12207;50.076;8.848;2024-03-17T12:17:30;411.23;;;97.32;;
23995;SDS011;12207;50.076;8.848;2024-03-17T12:19:57;405.58;;;99.95;;
23995;SDS011;12207;50.076;8.848;2024-03-17T12:22:25;416.15;;;99.40;;
23995;SDS011;12207;50.076;8.848;2024-03-17T12:24:52;423.67;;;101.03;;
23995;SDS011;12207;50.076;8.848;2024-03-17T12:27:24;410.35;;;101.03;;
23995;SDS011;12207;50.076;8.848;2024-03-17T12:29:51;396.65;;;99.25;;
23995;SDS011;12207;50.076;8.848;2024-03-17T12:32:22;381.15;;;96.72;;
23995;SDS011;12207;50.076;8.848;2024-03-17T12:34:50;404.15;;;98.70;;
23995;SDS011;12207;50.076;8.848;2024-03-17T12:39:51;410.13;;;99.50;;
23995;SDS011;12207;50.076;8.848;2024-03-17T12:42:22;396.23;;;97.85;;
23995;SDS011;12207;50.076;8.848;2024-03-17T12:44:50;401.85;;;100.43;;
23995;SDS011;12207;50.076;8.848;2024-03-17T12:47:17;386.80;;;96.90;;
23995;SDS011;12207;50.076;8.848;2024-03-17T12:54:45;398.43;;;96.40;;
23995;SDS011;12207;50.076;8.848;2024-03-17T12:57:47;410.98;;;98.47;;
23995;SDS011;12207;50.076;8.848;2024-03-17T13:00:33;408.13;;;99.40;;
23995;SDS011;12207;50.076;8.848;2024-03-17T13:03:03;388.85;;;94.57;;
23995;SDS011;12207;50.076;8.848;2024-03-17T13:05:34;400.52;;;97.65;;
23995;SDS011;12207;50.076;8.848;2024-03-17T13:08:01;390.75;;;98.13;;
23995;SDS011;12207;50.076;8.848;2024-03-17T13:10:30;402.45;;;100.38;;
23995;SDS011;12207;50.076;8.848;2024-03-17T13:13:00;393.65;;;100.25;;
23995;SDS011;12207;50.076;8.848;2024-03-17T13:15:32;390.83;;;97.15;;
23995;SDS011;12207;50.076;8.848;2024-03-17T13:18:01;422.45;;;101.82;;
23995;SDS011;12207;50.076;8.848;2024-03-17T13:20:28;407.67;;;98.60;;
23995;SDS011;12207;50.076;8.848;2024-03-17T13:22:56;406.90;;;100.32;;
23995;SDS011;12207;50.076;8.848;2024-03-17T13:25:23;381.83;;;97.15;;
23995;SDS011;12207;50.076;8.848;2024-03-17T13:27:58;411.65;;;102.30;;
23995;SDS011;12207;50.076;8.848;2024-03-17T13:30:24;423.67;;;99.95;;
23995;SDS011;12207;50.076;8.848;2024-03-17T13:32:53;392.98;;;102.00;;
23995;SDS011;12207;50.076;8.848;2024-03-17T13:35:27;387.73;;;94.30;;
23995;SDS011;12207;50.076;8.848;2024-03-17T13:37:54;400.95;;;97.65;;
23995;SDS011;12207;50.076;8.848;2024-03-17T13:40:24;399.98;;;96.70;;
23995;SDS011;12207;50.076;8.848;2024-03-17T13:42:52;396.67;;;96.15;;
23995;SDS011;12207;50.076;8.848;2024-03-17T13:45:20;387.60;;;96.07;;
23995;SDS011;12207;50.076;8.848;2024-03-17T13:47:52;415.17;;;99.57;;
23995;SDS011;12207;50.076;8.848;2024-03-17T13:50:23;413.25;;;98.05;;
23995;SDS011;12207;50.076;8.848;2024-03-17T13:52:50;396.55;;;95.28;;
23995;SDS011;12207;50.076;8.848;2024-03-17T13:55:20;402.40;;;96.75;;
23995;SDS011;12207;50.076;8.848;2024-03-17T13:57:51;408.98;;;99.38;;
23995;SDS011;12207;50.076;8.848;2024-03-17T14:00:25;413.30;;;98.78;;
23995;SDS011;12207;50.076;8.848;2024-03-17T14:02:53;403.70;;;93.90;;
23995;SDS011;12207;50.076;8.848;2024-03-17T14:05:21;398.60;;;94.85;;
23995;SDS011;12207;50.076;8.848;2024-03-17T14:07:48;400.67;;;94.80;;
23995;SDS011;12207;50.076;8.848;2024-03-17T14:10:17;403.23;;;96.55;;
23995;SDS011;12207;50.076;8.848;2024-03-17T14:12:45;391.05;;;96.47;;
23995;SDS011;12207;50.076;8.848;2024-03-17T14:15:11;655.15;;;126.82;;
23995;SDS011;12207;50.076;8.848;2024-03-17T14:17:39;424.02;;;97.72;;
23995;SDS011;12207;50.076;8.848;2024-03-17T14:20:09;391.77;;;94.38;;
23995;SDS011;12207;50.076;8.848;2024-03-17T14:22:36;377.17;;;93.78;;
23995;SDS011;12207;50.076;8.848;2024-03-17T14:25:04;403.05;;;97.55;;
23995;SDS011;12207;50.076;8.848;2024-03-17T14:27:31;417.50;;;99.53;;
23995;SDS011;12207;50.076;8.848;2024-03-17T14:29:59;408.83;;;96.63;;
23995;SDS011;12207;50.076;8.848;2024-03-17T14:32:25;387.25;;;94.85;;
23995;SDS011;12207;50.076;8.848;2024-03-17T14:34:52;390.42;;;94.78;;
23995;SDS011;12207;50.076;8.848;2024-03-17T14:37:18;399.35;;;94.10;;
23995;SDS011;12207;50.076;8.848;2024-03-17T14:39:45;412.95;;;97.78;;
23995;SDS011;12207;50.076;8.848;2024-03-17T14:42:11;414.02;;;95.55;;
23995;SDS011;12207;50.076;8.848;2024-03-17T14:44:39;388.48;;;91.93;;
23995;SDS011;12207;50.076;8.848;2024-03-17T14:47:05;392.48;;;94.38;;
23995;SDS011;12207;50.076;8.848;2024-03-17T14:49:32;386.83;;;91.43;;
23995;SDS011;12207;50.076;8.848;2024-03-17T14:51:58;389.35;;;93.50;;
23995;SDS011;12207;50.076;8.848;2024-03-17T14:54:25;384.92;;;94.95;;
23995;SDS011;12207;50.076;8.848;2024-03-17T14:56:51;388.35;;;92.15;;